Time;durP1;ratioP1;P1;durP2;ratioP2;P2;SDS_P1;SDS_P2;PMS_P1;PMS_P2;Temp;Humidity;BMP_temperature;BMP_pressure;BME280_temperature;BME280_humidity;BME280_pressure;Samples;Min_cycle;Max_cycle;Signal;HPM_P1;HPM_P2
2022/05/15 00:02:03;;;;;;;2.90;1.25;;;7.60;99.90;;;;;;4994820;28;20510;-85
2022/05/15 00:04:30;;;;;;;3.33;1.80;;;7.50;99.90;;;;;;4979290;28;20461;-86
2022/05/15 00:06:57;;;;;;;2.92;1.38;;;7.50;99.90;;;;;;4997601;28;20115;-85
2022/05/15 00:09:24;;;;;;;2.92;1.13;;;7.50;99.90;;;;;;4980074;28;20116;-85
2022/05/15 00:11:51;;;;;;;3.72;1.50;;;7.50;99.90;;;;;;4994978;28;20121;-86
2022/05/15 00:14:18;;;;;;;2.78;1.90;;;7.50;99.90;;;;;;4965016;28;20053;-86
2022/05/15 00:16:45;;;;;;;3.88;2.40;;;7.50;99.90;;;;;;4980898;28;20135;-86
2022/05/15 00:19:12;;;;;;;4.57;1.40;;;7.50;99.90;;;;;;4998967;28;20522;-86
2022/05/15 00:21:40;;;;;;;3.17;1.42;;;7.50;99.90;;;;;;4997130;28;20827;-86
2022/05/15 00:24:07;;;;;;;2.97;2.05;;;7.50;99.90;;;;;;4997974;28;20048;-86
2022/05/15 00:26:34;;;;;;;2.25;1.10;;;7.50;99.90;;;;;;4981339;28;20053;-86
2022/05/15 00:29:01;;;;;;;4.65;1.80;;;7.50;99.90;;;;;;4974212;28;20108;-87
2022/05/15 00:31:28;;;;;;;1.75;1.52;;;7.40;99.90;;;;;;4971812;28;20062;-86
2022/05/15 00:33:55;;;;;;;19.67;2.33;;;7.40;99.90;;;;;;4994752;28;20072;-86
2022/05/15 00:36:22;;;;;;;3.53;1.88;;;7.40;99.90;;;;;;4999837;28;20054;-85
2022/05/15 00:38:49;;;;;;;2.42;1.58;;;7.40;99.90;;;;;;4981065;28;20061;-85
2022/05/15 00:41:17;;;;;;;4.93;1.92;;;7.40;99.90;;;;;;4998360;28;20153;-85
2022/05/15 00:43:48;;;;;;;6.55;1.45;;;7.40;99.90;;;;;;4978753;28;20104;-85
2022/05/15 00:46:17;;;;;;;2.63;1.27;;;7.40;99.90;;;;;;4980460;28;20049;-85
2022/05/15 00:48:49;;;;;;;2.92;1.75;;;7.40;99.90;;;;;;4999951;28;20135;-85
2022/05/15 00:51:29;;;;;;;2.45;1.83;;;7.40;99.90;;;;;;4980066;28;20042;-86
2022/05/15 00:54:07;;;;;;;2.75;1.85;;;7.40;99.90;;;;;;4971660;28;20042;-86
2022/05/15 00:56:37;;;;;;;4.80;1.42;;;7.40;99.90;;;;;;4993585;28;20192;-86
2022/05/15 00:59:12;;;;;;;3.20;0.90;;;7.50;99.90;;;;;;4973950;28;20055;-86
2022/05/15 01:01:39;;;;;;;3.67;1.58;;;7.50;99.90;;;;;;4988474;28;20054;-86
2022/05/15 01:04:07;;;;;;;0.95;0.82;;;7.50;99.90;;;;;;4998071;28;20046;-86
2022/05/15 01:06:36;;;;;;;2.13;1.20;;;7.50;99.90;;;;;;4998208;28;20503;-86
2022/05/15 01:09:05;;;;;;;1.88;1.25;;;7.50;99.90;;;;;;4980569;28;20049;-86
2022/05/15 01:11:34;;;;;;;3.67;1.40;;;7.50;99.90;;;;;;4977027;28;20055;-86
2022/05/15 01:14:08;;;;;;;1.48;0.70;;;7.50;99.90;;;;;;4980714;28;20054;-86
2022/05/15 01:16:35;;;;;;;1.60;1.38;;;7.60;99.90;;;;;;4977366;28;20052;-86
2022/05/15 01:19:03;;;;;;;3.00;0.90;;;7.50;99.90;;;;;;4996299;28;20634;-86
2022/05/15 01:21:34;;;;;;;1.80;1.13;;;7.50;99.90;;;;;;4993870;28;20030;-86
2022/05/15 01:24:04;;;;;;;2.85;1.45;;;7.60;99.90;;;;;;4978565;28;20077;-86
2022/05/15 01:26:32;;;;;;;2.75;1.40;;;7.60;99.90;;;;;;4999271;28;20056;-86
2022/05/15 01:29:00;;;;;;;2.42;1.73;;;7.50;99.90;;;;;;4980189;28;20042;-86
2022/05/15 01:31:28;;;;;;;5.68;1.23;;;7.60;99.90;;;;;;4979116;28;20156;-86
2022/05/15 01:33:55;;;;;;;4.07;1.42;;;7.60;99.90;;;;;;5001041;28;20130;-86
2022/05/15 01:36:23;;;;;;;3.40;1.00;;;7.60;99.90;;;;;;4987976;28;20064;-86
2022/05/15 01:38:52;;;;;;;3.65;1.00;;;7.60;99.90;;;;;;4984829;28;20113;-86
2022/05/15 01:41:19;;;;;;;1.38;0.90;;;7.60;99.90;;;;;;4979441;28;20375;-86
2022/05/15 01:43:52;;;;;;;2.17;1.08;;;7.60;99.90;;;;;;4986416;28;20046;-86
2022/05/15 01:46:24;;;;;;;2.97;1.20;;;7.60;99.90;;;;;;4988265;28;20046;-86
2022/05/15 01:48:53;;;;;;;0.82;0.73;;;7.70;99.90;;;;;;4984585;28;20050;-86
2022/05/15 01:51:21;;;;;;;1.75;1.00;;;7.70;99.90;;;;;;4977430;28;20050;-86
2022/05/15 01:53:50;;;;;;;1.45;0.95;;;7.70;99.90;;;;;;5000763;28;20050;-86
2022/05/15 01:56:17;;;;;;;1.98;1.45;;;7.80;99.90;;;;;;4997180;28;20111;-86
2022/05/15 01:58:45;;;;;;;1.45;1.13;;;7.80;99.90;;;;;;4984556;28;20052;-86
2022/05/15 02:01:12;;;;;;;1.55;1.10;;;7.80;99.90;;;;;;4978367;28;20050;-86
2022/05/15 02:03:40;;;;;;;2.38;1.30;;;7.80;99.90;;;;;;4988428;28;20046;-86
2022/05/15 02:06:07;;;;;;;1.98;1.10;;;7.80;99.90;;;;;;4982044;28;20408;-86
2022/05/15 02:08:36;;;;;;;0.93;0.80;;;7.80;99.90;;;;;;4996465;28;20050;-87
2022/05/15 02:11:04;;;;;;;1.58;0.88;;;7.80;99.90;;;;;;4982323;28;20493;-86
2022/05/15 02:13:31;;;;;;;2.50;1.15;;;7.80;99.90;;;;;;4973262;28;20784;-85
2022/05/15 02:15:58;;;;;;;1.20;0.93;;;7.80;99.90;;;;;;4993026;28;20057;-86
2022/05/15 02:18:26;;;;;;;1.10;1.00;;;7.80;99.90;;;;;;4998471;28;20077;-86
2022/05/15 02:20:53;;;;;;;1.42;1.10;;;7.80;99.90;;;;;;4983165;28;20639;-86
2022/05/15 02:23:21;;;;;;;1.48;0.73;;;7.70;99.90;;;;;;4981745;28;20053;-85
2022/05/15 02:25:48;;;;;;;2.13;1.23;;;7.70;99.90;;;;;;4982131;28;20611;-85
2022/05/15 02:28:15;;;;;;;5.35;1.10;;;7.70;99.90;;;;;;4983944;28;20649;-85
2022/05/15 02:30:42;;;;;;;1.80;0.95;;;7.70;99.90;;;;;;4982572;28;20073;-85
2022/05/15 02:33:09;;;;;;;1.80;1.25;;;7.70;99.90;;;;;;4982911;28;20045;-85
2022/05/15 02:35:36;;;;;;;3.10;0.75;;;7.70;99.90;;;;;;4982258;28;20314;-86
2022/05/15 02:38:04;;;;;;;3.45;0.75;;;7.70;99.90;;;;;;5001567;28;20152;-86
2022/05/15 02:40:32;;;;;;;1.95;1.00;;;7.60;99.90;;;;;;4982892;28;20057;-85
2022/05/15 02:42:59;;;;;;;3.13;0.70;;;7.70;99.90;;;;;;5001605;28;20054;-85
2022/05/15 02:45:26;;;;;;;1.35;1.02;;;7.60;99.90;;;;;;4992819;28;20038;-85
2022/05/15 02:47:54;;;;;;;4.88;2.00;;;7.60;99.90;;;;;;4982843;28;20045;-85
2022/05/15 02:53:08;;;;;;;3.20;1.20;;;7.60;99.90;;;;;;4984042;28;20164;-85
2022/05/15 02:55:35;;;;;;;1.77;1.00;;;7.60;99.90;;;;;;4982191;28;20064;-85
2022/05/15 02:58:04;;;;;;;4.18;0.85;;;7.50;99.90;;;;;;4982692;28;20062;-85
2022/05/15 03:00:32;;;;;;;4.45;1.38;;;7.60;99.90;;;;;;4994076;28;20461;-85
2022/05/15 03:02:59;;;;;;;2.83;0.85;;;7.50;99.90;;;;;;5000898;28;20050;-85
2022/05/15 03:05:28;;;;;;;2.25;1.25;;;7.50;99.90;;;;;;4974052;28;20570;-85
2022/05/15 03:07:56;;;;;;;1.33;0.88;;;7.50;99.90;;;;;;4981492;28;20038;-85
2022/05/15 03:10:23;;;;;;;6.03;1.05;;;7.50;99.90;;;;;;5000962;28;20069;-85
2022/05/15 03:12:50;;;;;;;1.50;1.00;;;7.50;99.90;;;;;;4981100;28;20150;-84
2022/05/15 03:15:20;;;;;;;1.58;0.80;;;7.50;99.90;;;;;;4980247;28;20089;-84
2022/05/15 03:17:47;;;;;;;3.67;1.07;;;7.60;99.90;;;;;;4980682;28;20710;-84
2022/05/15 03:20:17;;;;;;;2.90;1.52;;;7.70;99.90;;;;;;4987173;28;20296;-85
2022/05/15 03:22:46;;;;;;;1.65;0.80;;;7.70;99.90;;;;;;4982105;28;20078;-84
2022/05/15 03:25:12;;;;;;;2.17;1.13;;;7.80;99.90;;;;;;4977628;28;20054;-84
2022/05/15 03:27:39;;;;;;;2.55;1.67;;;7.80;99.90;;;;;;4978485;28;20049;-85
2022/05/15 03:30:07;;;;;;;3.50;1.48;;;7.80;99.90;;;;;;4981097;28;20081;-85
2022/05/15 03:32:35;;;;;;;4.20;1.02;;;7.90;99.90;;;;;;4982739;28;20080;-85
2022/05/15 03:35:04;;;;;;;1.63;0.57;;;7.90;99.90;;;;;;4982245;28;20524;-85
2022/05/15 03:37:31;;;;;;;3.33;0.88;;;7.90;99.90;;;;;;4997634;28;20045;-84
2022/05/15 03:39:58;;;;;;;7.65;1.20;;;7.90;99.90;;;;;;4980892;28;20137;-85
2022/05/15 03:42:26;;;;;;;3.78;1.20;;;7.90;99.90;;;;;;4981964;28;20046;-84
2022/05/15 03:44:53;;;;;;;6.03;1.27;;;7.90;99.90;;;;;;4979216;28;20081;-85
2022/05/15 03:47:21;;;;;;;2.85;1.20;;;8.00;99.90;;;;;;4996702;28;20147;-85
2022/05/15 03:49:48;;;;;;;2.97;0.93;;;8.00;99.90;;;;;;4978246;28;20053;-85
2022/05/15 03:52:16;;;;;;;2.63;1.25;;;8.10;99.90;;;;;;4993150;28;20103;-85
2022/05/15 03:54:46;;;;;;;3.58;0.93;;;8.10;99.90;;;;;;4982040;28;20627;-85
2022/05/15 03:57:13;;;;;;;;;;;8.10;99.90;;;;;;4982947;28;20376;-85
2022/05/15 03:59:41;;;;;;;2.47;1.30;;;8.10;99.90;;;;;;4980015;28;19949;-85
2022/05/15 04:02:09;;;;;;;5.20;2.10;;;8.10;99.90;;;;;;4978833;28;20057;-85
2022/05/15 04:04:38;;;;;;;3.25;1.15;;;8.10;99.90;;;;;;4992376;28;20053;-84
2022/05/15 04:07:11;;;;;;;3.95;1.30;;;8.20;99.90;;;;;;4996791;28;20057;-85
2022/05/15 04:09:40;;;;;;;3.05;1.33;;;8.20;99.90;;;;;;4979568;28;20057;-85
2022/05/15 04:12:09;;;;;;;7.50;1.55;;;8.20;99.90;;;;;;4998330;28;20137;-85
2022/05/15 04:14:36;;;;;;;4.35;1.08;;;8.30;99.90;;;;;;4998516;28;20101;-85
2022/05/15 04:17:04;;;;;;;15.43;2.05;;;8.40;99.90;;;;;;5001576;28;20565;-84
2022/05/15 04:19:33;;;;;;;1.63;1.25;;;8.40;99.90;;;;;;4997141;28;20050;-85
2022/05/15 04:22:03;;;;;;;6.18;2.50;;;8.40;99.90;;;;;;4999695;28;20475;-84
2022/05/15 04:24:30;;;;;;;6.18;1.55;;;8.50;99.90;;;;;;4981958;28;20057;-84
2022/05/15 04:26:58;;;;;;;5.55;1.00;;;8.50;99.90;;;;;;4993864;28;20065;-85
2022/05/15 04:29:25;;;;;;;5.22;1.50;;;8.60;99.90;;;;;;4979921;28;20069;-85
2022/05/15 04:31:58;;;;;;;10.80;2.55;;;8.60;99.90;;;;;;4998060;28;20108;-85
2022/05/15 04:34:27;;;;;;;5.57;2.78;;;8.70;99.90;;;;;;4978555;28;20045;-84
2022/05/15 04:36:54;;;;;;;2.70;1.75;;;8.80;99.90;;;;;;4978501;28;20069;-85
2022/05/15 04:39:22;;;;;;;3.97;1.52;;;8.80;99.90;;;;;;4999628;28;20054;-85
2022/05/15 04:41:49;;;;;;;4.43;1.95;;;8.90;99.90;;;;;;4979633;28;20080;-85
2022/05/15 04:44:16;;;;;;;7.78;1.90;;;9.00;99.90;;;;;;4981569;28;20058;-84
2022/05/15 04:46:43;;;;;;;2.13;1.30;;;9.00;99.90;;;;;;4997615;28;20069;-84
2022/05/15 04:49:10;;;;;;;6.25;2.00;;;9.10;99.90;;;;;;4981605;28;20053;-85
2022/05/15 04:51:37;;;;;;;2.25;1.50;;;9.20;99.90;;;;;;4976546;28;20081;-84
2022/05/15 04:54:04;;;;;;;7.15;1.98;;;9.20;99.90;;;;;;4982370;28;20100;-84
2022/05/15 04:56:31;;;;;;;3.58;1.58;;;9.30;99.90;;;;;;5000168;28;20046;-85
2022/05/15 04:58:58;;;;;;;5.40;2.15;;;9.30;99.90;;;;;;4998777;28;20161;-85
2022/05/15 05:01:25;;;;;;;6.97;1.30;;;9.30;99.90;;;;;;4997105;28;20046;-85
2022/05/15 05:03:54;;;;;;;3.50;1.73;;;9.30;99.90;;;;;;4996176;28;20045;-84
2022/05/15 05:06:22;;;;;;;5.53;2.25;;;9.20;99.90;;;;;;4999241;28;20064;-85
2022/05/15 05:08:49;;;;;;;4.95;1.67;;;9.10;99.90;;;;;;4975509;28;20361;-85
2022/05/15 05:11:16;;;;;;;7.35;1.90;;;9.10;99.90;;;;;;5000305;28;20049;-85
2022/05/15 05:13:43;;;;;;;3.72;2.10;;;9.10;99.90;;;;;;5000025;28;20526;-85
2022/05/15 05:16:10;;;;;;;7.00;1.67;;;8.90;99.90;;;;;;4984506;28;20065;-84
2022/05/15 05:18:38;;;;;;;5.57;1.52;;;8.90;99.90;;;;;;4988902;28;20057;-85
2022/05/15 05:21:05;;;;;;;6.43;1.73;;;8.80;99.90;;;;;;4994872;28;20100;-84
2022/05/15 05:23:33;;;;;;;3.72;2.33;;;8.80;99.90;;;;;;4983103;28;20449;-85
2022/05/15 05:26:00;;;;;;;6.60;3.15;;;8.90;99.90;;;;;;4994889;28;20129;-84
2022/05/15 05:28:28;;;;;;;7.65;3.42;;;8.80;99.90;;;;;;5003083;28;20415;-85
2022/05/15 05:30:55;;;;;;;2.92;2.35;;;8.90;99.90;;;;;;4995016;28;20093;-86
2022/05/15 05:33:22;;;;;;;5.40;2.13;;;8.90;99.90;;;;;;4980583;28;20050;-85
2022/05/15 05:35:50;;;;;;;7.85;2.78;;;9.00;99.90;;;;;;4997346;28;20038;-85
2022/05/15 05:38:17;;;;;;;8.07;3.08;;;9.00;99.90;;;;;;4984562;28;20069;-85
2022/05/15 05:40:44;;;;;;;8.57;4.28;;;9.00;99.90;;;;;;5002444;28;20080;-85
2022/05/15 05:43:11;;;;;;;5.15;2.45;;;8.90;99.90;;;;;;5000636;28;20065;-85
2022/05/15 05:45:39;;;;;;;5.57;2.78;;;9.00;99.90;;;;;;4982623;28;20250;-85
2022/05/15 05:48:07;;;;;;;3.13;1.92;;;9.00;99.90;;;;;;5001440;28;20545;-84
2022/05/15 05:50:36;;;;;;;10.75;2.45;;;9.00;99.90;;;;;;4983987;28;20050;-85
2022/05/15 05:53:03;;;;;;;8.93;2.20;;;9.00;99.90;;;;;;4995477;28;20125;-85
2022/05/15 05:55:31;;;;;;;6.03;2.33;;;9.10;99.90;;;;;;5000564;28;20053;-85
2022/05/15 05:57:58;;;;;;;3.70;2.40;;;9.10;99.90;;;;;;4999313;28;20400;-84
2022/05/15 06:00:31;;;;;;;3.85;2.00;;;9.10;99.90;;;;;;5000077;28;20096;-85
2022/05/15 06:05:44;;;;;;;5.43;2.55;;;9.10;99.90;;;;;;4981466;28;20041;-84
2022/05/15 06:08:11;;;;;;;5.80;2.25;;;9.10;99.90;;;;;;5006258;28;20045;-85
2022/05/15 06:10:38;;;;;;;3.05;2.47;;;9.10;99.90;;;;;;4968555;28;20076;-85
2022/05/15 06:13:06;;;;;;;3.78;1.50;;;9.10;99.90;;;;;;4978639;28;20539;-85
2022/05/15 06:15:34;;;;;;;7.35;1.33;;;9.20;99.90;;;;;;4982214;28;20051;-84
2022/05/15 06:18:03;;;;;;;11.68;3.30;;;9.10;99.90;;;;;;4964332;28;20726;-84
2022/05/15 06:20:31;;;;;;;3.97;1.90;;;9.10;99.90;;;;;;4979641;28;20415;-86
2022/05/15 06:22:58;;;;;;;4.22;2.20;;;9.10;99.90;;;;;;4981451;28;20546;-85
2022/05/15 06:25:25;;;;;;;6.88;1.40;;;9.00;99.90;;;;;;4978500;28;20054;-85
2022/05/15 06:27:55;;;;;;;2.70;1.77;;;9.00;99.90;;;;;;4981481;28;20094;-85
2022/05/15 06:30:22;;;;;;;5.95;2.13;;;9.10;99.90;;;;;;4976542;28;20105;-84
2022/05/15 06:32:49;;;;;;;3.28;1.35;;;9.10;99.90;;;;;;4979602;28;20046;-85
2022/05/15 06:35:16;;;;;;;2.90;1.30;;;9.10;99.90;;;;;;4982591;28;20050;-85
2022/05/15 06:37:44;;;;;;;4.00;1.40;;;9.10;99.90;;;;;;4978804;28;20475;-86
2022/05/15 06:40:13;;;;;;;11.02;1.98;;;9.10;99.90;;;;;;4981645;28;20109;-85
2022/05/15 06:42:41;;;;;;;2.45;1.80;;;9.10;99.90;;;;;;4979912;28;20618;-85
2022/05/15 06:45:11;;;;;;;8.63;1.77;;;9.10;99.90;;;;;;4962986;28;20924;-85
2022/05/15 06:47:38;;;;;;;4.85;1.58;;;9.00;99.90;;;;;;4979584;28;20058;-84
2022/05/15 06:50:07;;;;;;;5.63;1.70;;;9.00;99.90;;;;;;4981387;28;20081;-85
2022/05/15 06:52:36;;;;;;;6.57;1.77;;;9.00;99.90;;;;;;4980939;28;20042;-84
2022/05/15 06:55:11;;;;;;;4.10;1.98;;;9.00;99.90;;;;;;4981169;28;20134;-85
2022/05/15 06:57:39;;;;;;;8.65;2.08;;;9.10;99.90;;;;;;4979180;28;20062;-86
2022/05/15 07:00:18;;;;;;;1.77;1.42;;;9.10;99.90;;;;;;4978558;28;20058;-85
2022/05/15 07:02:46;;;;;;;3.15;1.48;;;9.20;99.90;;;;;;4981583;28;20058;-85
2022/05/15 07:05:16;;;;;;;2.65;1.42;;;9.10;99.90;;;;;;4968001;28;20522;-85
2022/05/15 07:07:44;;;;;;;2.65;1.08;;;9.10;99.90;;;;;;4978901;28;20069;-85
2022/05/15 07:10:12;;;;;;;5.55;1.73;;;9.20;99.90;;;;;;4981265;28;20057;-85
2022/05/15 07:12:40;;;;;;;3.95;2.22;;;9.20;99.90;;;;;;4984360;28;20541;-85
2022/05/15 07:15:08;;;;;;;2.45;0.95;;;9.20;99.90;;;;;;5000037;28;20410;-85
2022/05/15 07:17:35;;;;;;;3.67;1.25;;;9.30;99.90;;;;;;4997912;28;20348;-85
2022/05/15 07:20:03;;;;;;;2.60;1.15;;;9.30;99.90;;;;;;5001667;28;20096;-85
2022/05/15 07:22:31;;;;;;;2.90;1.70;;;9.30;99.90;;;;;;4981981;28;20073;-84
2022/05/15 07:24:58;;;;;;;7.65;1.90;;;9.40;99.90;;;;;;5001558;28;20113;-85
2022/05/15 07:27:25;;;;;;;1.55;1.15;;;9.40;99.90;;;;;;4971553;28;20042;-85
2022/05/15 07:29:51;;;;;;;2.65;1.02;;;9.50;99.90;;;;;;4996976;28;20164;-85
2022/05/15 07:32:18;;;;;;;1.33;1.05;;;9.40;99.90;;;;;;4980503;28;20095;-84
2022/05/15 07:34:45;;;;;;;2.40;1.55;;;9.50;99.90;;;;;;5000326;28;20561;-84
2022/05/15 07:37:13;;;;;;;3.45;1.52;;;9.50;99.90;;;;;;4981266;28;20053;-85
2022/05/15 07:39:39;;;;;;;3.33;1.88;;;9.40;99.90;;;;;;4979846;28;20128;-84
2022/05/15 07:42:07;;;;;;;1.33;1.23;;;9.50;99.90;;;;;;4999120;28;20054;-85
2022/05/15 07:44:34;;;;;;;2.95;2.55;;;9.60;99.90;;;;;;4982254;28;20073;-86
2022/05/15 07:47:01;;;;;;;4.55;1.95;;;9.70;99.90;;;;;;4997640;28;20128;-85
2022/05/15 07:49:30;;;;;;;1.38;0.80;;;9.70;99.90;;;;;;4998323;28;20045;-86
2022/05/15 07:51:57;;;;;;;2.22;1.30;;;9.70;99.90;;;;;;4998338;28;20062;-85
2022/05/15 07:54:24;;;;;;;2.03;1.00;;;9.70;99.90;;;;;;4981545;28;20049;-85
2022/05/15 07:56:51;;;;;;;2.63;1.55;;;9.70;99.90;;;;;;4981857;28;20108;-85
2022/05/15 07:59:18;;;;;;;2.03;1.25;;;9.50;99.90;;;;;;4994225;28;20050;-84
2022/05/15 08:01:45;;;;;;;1.50;1.40;;;9.60;99.90;;;;;;5000128;28;20096;-85
2022/05/15 08:04:13;;;;;;;4.88;1.50;;;9.70;99.90;;;;;;5000956;28;20160;-85
2022/05/15 08:09:25;;;;;;;6.82;1.65;;;9.90;99.90;;;;;;4988627;28;20399;-85
2022/05/15 08:11:57;;;;;;;4.53;1.40;;;10.00;99.90;;;;;;4979749;28;20510;-86
2022/05/15 08:14:24;;;;;;;0.95;0.85;;;10.00;99.90;;;;;;4999307;28;20915;-86
2022/05/15 08:16:51;;;;;;;1.40;1.30;;;10.10;99.90;;;;;;4998642;28;20088;-85
2022/05/15 08:24:52;;;;;;;1.65;1.48;;;10.00;99.90;;;;;;4999314;28;20049;-86
2022/05/15 08:27:19;;;;;;;1.52;1.38;;;10.10;99.90;;;;;;4995896;28;20034;-86
2022/05/15 08:29:46;;;;;;;1.88;0.95;;;10.20;99.90;;;;;;4981015;28;20046;-86
2022/05/15 08:32:13;;;;;;;1.00;0.90;;;10.30;99.90;;;;;;4979889;28;20054;-87
2022/05/15 08:34:43;;;;;;;1.70;0.82;;;10.20;99.90;;;;;;4967180;28;20054;-84
2022/05/15 08:37:10;;;;;;;1.00;0.90;;;10.20;99.90;;;;;;4999372;28;20112;-85
2022/05/15 08:39:37;;;;;;;1.92;0.90;;;10.20;99.90;;;;;;4980333;28;20060;-85
2022/05/15 08:42:18;;;;;;;1.23;1.15;;;10.20;99.90;;;;;;4999148;28;20054;-86
2022/05/15 08:44:46;;;;;;;1.05;0.93;;;10.20;99.90;;;;;;4999466;28;20487;-85
2022/05/15 08:47:32;;;;;;;0.80;0.77;;;10.10;99.90;;;;;;4984609;28;20074;-86
2022/05/15 08:50:08;;;;;;;4.68;1.38;;;10.10;99.90;;;;;;4998789;28;20085;-86
2022/05/15 08:53:04;;;;;;;0.98;0.88;;;10.10;99.90;;;;;;5003012;28;20054;-85
2022/05/15 08:55:47;;;;;;;0.95;0.95;;;10.20;99.90;;;;;;4992746;28;20034;-85
2022/05/15 08:58:53;;;;;;;1.95;1.38;;;10.30;99.90;;;;;;5003430;28;20050;-85
2022/05/15 09:01:27;;;;;;;1.10;0.70;;;10.40;99.90;;;;;;4981219;28;20061;-86
2022/05/15 09:03:55;;;;;;;2.67;0.85;;;10.50;99.90;;;;;;4990519;28;20049;-86
2022/05/15 09:06:22;;;;;;;2.92;0.93;;;10.60;99.90;;;;;;4995659;28;20050;-86
2022/05/15 09:09:23;;;;;;;1.92;0.68;;;10.70;99.90;;;;;;5003499;28;20696;-86
2022/05/15 09:11:58;;;;;;;1.17;1.00;;;10.90;99.90;;;;;;4996414;28;20046;-86
2022/05/15 09:15:00;;;;;;;2.92;1.13;;;11.00;99.90;;;;;;5002484;28;20177;-85
2022/05/15 09:17:38;;;;;;;2.22;0.85;;;11.20;99.90;;;;;;4997143;28;20060;-86
2022/05/15 09:20:13;;;;;;;1.40;0.80;;;11.10;99.90;;;;;;5002307;28;20053;-86
2022/05/15 09:22:57;;;;;;;1.20;1.10;;;10.90;99.90;;;;;;5001821;28;20046;-85
2022/05/15 09:25:25;;;;;;;2.90;0.60;;;10.70;99.90;;;;;;5001261;28;20710;-85
2022/05/15 09:28:02;;;;;;;0.70;0.70;;;10.60;99.90;;;;;;4983826;28;20058;-85
2022/05/15 09:30:36;;;;;;;0.70;0.60;;;10.70;99.90;;;;;;4983781;28;20418;-85
2022/05/15 09:33:04;;;;;;;1.23;0.75;;;10.70;99.90;;;;;;4998342;28;20058;-86
2022/05/15 09:35:41;;;;;;;1.38;0.82;;;10.70;99.90;;;;;;4998046;28;20112;-85
2022/05/15 09:38:28;;;;;;;0.65;0.40;;;10.70;99.90;;;;;;5000789;28;20413;-84
2022/05/15 09:44:43;;;;;;;1.05;0.50;;;10.40;99.90;;;;;;5000096;28;20057;-86
2022/05/15 09:47:10;;;;;;;1.02;1.00;;;10.50;99.90;;;;;;5000234;28;20073;-85
2022/05/15 09:49:37;;;;;;;1.85;0.98;;;10.50;99.90;;;;;;4982124;28;20149;-86
2022/05/15 09:52:26;;;;;;;1.35;0.68;;;10.60;99.90;;;;;;5001855;28;20065;-84
2022/05/15 09:55:05;;;;;;;0.50;0.47;;;10.70;99.90;;;;;;4999347;28;20053;-86
2022/05/15 09:57:32;;;;;;;1.35;0.57;;;10.90;99.90;;;;;;4982018;28;20153;-86
2022/05/15 10:00:05;;;;;;;0.65;0.45;;;11.00;99.90;;;;;;5001628;28;20061;-86
2022/05/15 10:02:41;;;;;;;0.80;0.50;;;10.90;99.90;;;;;;4984682;28;20046;-86
2022/05/15 10:05:16;;;;;;;2.47;0.50;;;10.80;99.90;;;;;;4988334;28;20380;-86
2022/05/15 10:07:58;;;;;;;1.17;0.60;;;10.90;99.90;;;;;;4974576;28;20754;-85
2022/05/15 10:10:45;;;;;;;0.98;0.50;;;11.00;99.90;;;;;;4993393;28;20042;-86
2022/05/15 10:13:23;;;;;;;2.22;0.82;;;11.10;99.90;;;;;;4996118;28;20133;-86
2022/05/15 10:15:51;;;;;;;2.38;0.50;;;11.20;99.90;;;;;;4996590;28;20475;-86
2022/05/15 10:18:23;;;;;;;1.13;0.60;;;11.20;99.90;;;;;;4997054;28;20046;-85
2022/05/15 10:20:53;;;;;;;1.45;0.68;;;11.30;99.90;;;;;;4998783;28;20561;-87
2022/05/15 10:23:29;;;;;;;3.92;0.50;;;11.20;99.90;;;;;;4990281;28;20124;-87
2022/05/15 10:26:05;;;;;;;0.50;0.40;;;11.30;99.90;;;;;;4999786;28;20057;-87
2022/05/15 10:28:57;;;;;;;1.25;0.50;;;11.40;99.90;;;;;;4983519;28;20253;-86
2022/05/15 10:31:31;;;;;;;1.75;0.40;;;11.60;99.90;;;;;;4983067;28;20716;-85
2022/05/15 10:34:04;;;;;;;1.35;0.47;;;11.80;99.90;;;;;;5001829;28;20403;-87
2022/05/15 10:36:48;;;;;;;0.68;0.47;;;11.60;99.90;;;;;;5001341;28;20046;-86
2022/05/15 10:39:29;;;;;;;2.05;0.65;;;11.70;99.90;;;;;;5000369;28;20046;-86
2022/05/15 10:42:37;;;;;;;0.68;0.45;;;11.70;99.90;;;;;;4982308;28;20054;-86
2022/05/15 10:45:18;;;;;;;0.52;0.43;;;11.70;99.90;;;;;;4996316;28;20144;-86
2022/05/15 10:48:12;;;;;;;1.75;0.70;;;11.80;99.90;;;;;;4982281;28;20053;-86
2022/05/15 10:50:55;;;;;;;3.22;0.55;;;11.30;99.90;;;;;;4975308;28;20062;-86
2022/05/15 10:59:26;;;;;;;2.00;0.80;;;11.00;99.90;;;;;;4993638;28;20153;-86
2022/05/15 11:01:58;;;;;;;1.02;0.40;;;11.10;99.90;;;;;;4999210;28;20065;-84
2022/05/15 11:04:49;;;;;;;0.50;0.50;;;11.10;99.90;;;;;;5001198;28;20109;-86
2022/05/15 11:07:23;;;;;;;2.42;0.60;;;11.10;99.90;;;;;;4998312;28;20058;-86
2022/05/15 11:09:53;;;;;;;4.30;2.20;;;11.20;99.90;;;;;;4993809;28;20331;-87
2022/05/15 11:13:12;;;;;;;2.85;0.60;;;11.20;99.90;;;;;;4980141;28;20104;-85
2022/05/15 11:16:11;;;;;;;1.55;0.60;;;11.00;99.90;;;;;;4963914;28;20565;-85
2022/05/15 11:19:11;;;;;;;1.13;0.88;;;11.10;99.90;;;;;;4973728;28;20057;-85
2022/05/15 11:21:41;;;;;;;1.20;0.40;;;11.10;99.90;;;;;;4998282;28;20045;-86
2022/05/15 11:24:31;;;;;;;3.08;0.90;;;11.00;99.90;;;;;;4999453;28;20053;-86
2022/05/15 11:27:20;;;;;;;4.07;0.77;;;10.90;99.90;;;;;;4996201;28;20046;-86
2022/05/15 11:29:50;;;;;;;3.40;0.77;;;10.80;99.90;;;;;;4998027;28;20049;-85
2022/05/15 11:32:46;;;;;;;2.47;1.23;;;11.10;99.90;;;;;;4983757;28;20094;-85
2022/05/15 11:35:20;;;;;;;2.05;0.82;;;11.30;99.90;;;;;;4982348;28;20060;-86
2022/05/15 11:38:25;;;;;;;1.17;0.63;;;11.40;99.90;;;;;;4977011;28;20495;-86
2022/05/15 11:40:53;;;;;;;2.53;0.60;;;11.40;99.90;;;;;;4979185;28;20177;-85
2022/05/15 11:43:29;;;;;;;5.53;1.75;;;11.70;99.90;;;;;;4987143;28;20136;-85
2022/05/15 11:46:06;;;;;;;0.57;0.40;;;11.80;99.90;;;;;;4994357;28;20057;-86
2022/05/15 11:48:43;;;;;;;2.25;0.88;;;11.90;99.90;;;;;;4999717;28;20038;-86
2022/05/15 11:51:12;;;;;;;0.30;0.30;;;12.00;99.90;;;;;;4981638;28;20057;-86
2022/05/15 11:53:53;;;;;;;0.50;0.47;;;12.10;99.90;;;;;;4998407;28;20049;-85
2022/05/15 11:57:00;;;;;;;1.30;0.75;;;11.90;99.90;;;;;;4982537;28;20513;-85
2022/05/15 11:59:31;;;;;;;1.50;0.77;;;11.60;99.90;;;;;;4977516;28;20065;-86
2022/05/15 12:02:02;;;;;;;0.95;0.80;;;11.50;99.90;;;;;;4998820;28;20053;-86
2022/05/15 12:04:36;;;;;;;3.80;0.73;;;11.50;99.90;;;;;;4982103;28;20065;-85
2022/05/15 12:07:02;;;;;;;0.88;0.50;;;11.30;99.90;;;;;;4979917;28;20363;-85
2022/05/15 12:09:43;;;;;;;0.30;0.30;;;11.40;99.90;;;;;;4996269;28;20050;-85
2022/05/15 12:12:31;;;;;;;0.90;0.63;;;11.50;99.90;;;;;;4999020;28;20091;-85
2022/05/15 12:15:23;;;;;;;0.85;0.50;;;11.40;99.90;;;;;;4978696;28;20149;-84
2022/05/15 12:17:50;;;;;;;1.00;0.50;;;11.20;99.90;;;;;;4998265;28;20096;-84
2022/05/15 12:20:32;;;;;;;0.75;0.52;;;11.20;99.90;;;;;;4986725;28;20053;-84
2022/05/15 12:23:11;;;;;;;2.00;0.45;;;11.10;99.90;;;;;;4998974;28;20111;-85
2022/05/15 12:25:58;;;;;;;2.42;0.40;;;11.20;99.90;;;;;;4989356;28;20462;-84
2022/05/15 12:28:54;;;;;;;1.02;0.38;;;11.30;99.90;;;;;;4977514;28;20042;-84
2022/05/15 12:31:47;;;;;;;0.43;0.30;;;11.40;99.90;;;;;;4990769;28;20505;-85
2022/05/15 12:34:34;;;;;;;0.77;0.32;;;11.60;99.90;;;;;;4991836;28;20046;-85
2022/05/15 12:37:06;;;;;;;0.95;0.65;;;11.90;99.90;;;;;;4997015;28;20038;-84
2022/05/15 12:39:42;;;;;;;1.23;0.60;;;11.90;99.90;;;;;;4990551;28;20069;-85
2022/05/15 12:42:18;;;;;;;0.47;0.32;;;12.20;99.90;;;;;;4999905;28;20042;-85
2022/05/15 12:44:45;;;;;;;0.52;0.50;;;12.40;99.90;;;;;;4998865;28;20053;-85
2022/05/15 12:47:24;;;;;;;0.60;0.30;;;12.60;99.90;;;;;;4980723;28;20065;-85
2022/05/15 12:49:59;;;;;;;2.95;0.30;;;12.80;99.90;;;;;;5001163;28;20684;-85
2022/05/15 12:52:29;;;;;;;0.55;0.30;;;13.00;99.90;;;;;;4989245;28;20594;-85
2022/05/15 12:55:11;;;;;;;0.32;0.32;;;13.00;99.90;;;;;;4997009;28;20402;-85
2022/05/15 12:57:50;;;;;;;0.95;0.30;;;13.20;99.90;;;;;;4979220;28;20080;-85
2022/05/15 13:00:23;;;;;;;0.20;0.20;;;13.30;99.90;;;;;;4982402;28;20757;-84
2022/05/15 13:02:57;;;;;;;0.25;0.20;;;13.40;99.90;;;;;;4991764;28;20085;-84
2022/05/15 13:05:31;;;;;;;0.20;0.20;;;13.20;98.70;;;;;;4991637;28;20050;-84
2022/05/15 13:08:00;;;;;;;0.47;0.30;;;13.10;98.20;;;;;;4980524;28;20058;-84
2022/05/15 13:10:34;;;;;;;0.52;0.32;;;13.40;99.90;;;;;;4962924;28;20039;-84
2022/05/15 13:13:17;;;;;;;0.00;0.00;;;13.70;95.40;;;;;;4997013;28;20053;-84
2022/05/15 13:15:48;;;;;;;0.70;0.20;;;13.50;94.50;;;;;;4989535;28;20054;-84
2022/05/15 13:18:15;;;;;;;;;;;13.60;94.60;;;;;;4978978;28;20061;-84
2022/05/15 13:20:48;;;;;;;1.35;0.95;;;13.90;95.50;;;;;;4976482;28;19921;-85
2022/05/15 13:23:16;;;;;;;0.73;0.22;;;14.10;94.60;;;;;;4970158;28;20057;-85
2022/05/15 13:25:47;;;;;;;0.68;0.20;;;14.40;95.80;;;;;;4983565;28;20038;-85
2022/05/15 13:28:14;;;;;;;1.30;0.85;;;14.70;94.20;;;;;;4998835;28;20057;-84
2022/05/15 13:30:42;;;;;;;0.20;0.17;;;14.60;92.50;;;;;;4997969;28;20054;-85
2022/05/15 13:33:12;;;;;;;0.40;0.30;;;14.80;92.40;;;;;;4997952;28;20053;-85
2022/05/15 13:35:45;;;;;;;0.45;0.30;;;14.90;92.80;;;;;;4981549;28;20046;-86
2022/05/15 13:38:17;;;;;;;0.77;0.77;;;14.90;93.30;;;;;;4998137;28;20187;-85
2022/05/15 13:43:58;;;;;;;1.30;0.30;;;15.00;90.50;;;;;;4980236;28;20050;-84